createdAt,value
2018-08-18T00:05:01.608Z,78
2018-08-18T00:10:36.772Z,78
2018-08-18T00:16:05.346Z,79
2018-08-18T00:21:30.480Z,79
2018-08-18T00:26:59.825Z,79
2018-08-18T00:32:28.642Z,79
2018-08-18T00:37:58.804Z,79
2018-08-18T00:43:27.209Z,79
2018-08-18T00:48:55.983Z,79
2018-08-18T00:54:30.055Z,79
2018-08-18T00:59:53.595Z,79
2018-08-18T01:05:27.706Z,79
2018-08-18T01:10:56.208Z,79
2018-08-18T01:16:20.930Z,79
2018-08-18T01:21:50.220Z,79
2018-08-18T01:27:18.688Z,79
2018-08-18T01:32:47.210Z,79
2018-08-18T01:38:16.438Z,79
2018-08-18T01:43:44.905Z,79
2018-08-18T01:49:14.722Z,79
2018-08-18T01:54:44.544Z,80
2018-08-18T02:00:14.049Z,80
2018-08-18T02:05:48.812Z,80
2018-08-18T02:11:13.868Z,80
2018-08-18T02:16:42.616Z,80
2018-08-18T02:22:12.609Z,80
2018-08-18T02:27:40.947Z,80
2018-08-18T02:33:16.058Z,80
2018-08-18T02:38:39.538Z,80
2018-08-18T02:44:09.337Z,80
2018-08-18T02:49:38.560Z,81
2018-08-18T02:55:06.837Z,81
2018-08-18T03:00:36.630Z,81
2018-08-18T03:06:11.429Z,81
2018-08-18T03:11:36.180Z,81
2018-08-18T03:17:05.023Z,81
2018-08-18T03:22:34.708Z,81
2018-08-18T03:28:08.577Z,81
2018-08-18T03:33:32.284Z,81
2018-08-18T03:39:02.033Z,81
2018-08-18T03:44:31.267Z,81
2018-08-18T03:50:05.952Z,81
2018-08-18T03:55:29.211Z,81
2018-08-18T04:00:58.986Z,81
2018-08-18T04:06:27.663Z,81
2018-08-18T04:12:02.789Z,82
2018-08-18T04:17:26.208Z,82
2018-08-18T04:22:55.136Z,82
2018-08-18T04:28:28.656Z,82
2018-08-18T04:33:53.366Z,82
2018-08-18T04:39:22.136Z,82
2018-08-18T04:44:55.804Z,82
2018-08-18T04:55:49.878Z,82
2018-08-18T05:01:18.043Z,82
2018-08-18T05:06:51.761Z,82
2018-08-18T05:12:15.631Z,82
2018-08-18T05:17:44.691Z,82
2018-08-18T05:23:14.016Z,82
2018-08-18T05:28:43.224Z,82
2018-08-18T05:34:17.642Z,83
2018-08-18T05:39:42.441Z,83
2018-08-18T05:45:12.481Z,83
2018-08-18T05:50:42.529Z,83
2018-08-18T05:56:17.417Z,83
2018-08-18T06:01:46.025Z,83
2018-08-18T06:07:09.967Z,83
2018-08-18T06:12:39.612Z,83
2018-08-18T06:18:13.626Z,83
2018-08-18T06:23:38.473Z,83
2018-08-18T06:29:08.008Z,83
2018-08-18T06:34:36.455Z,84
2018-08-18T06:40:05.375Z,84
2018-08-18T06:45:36.111Z,84
2018-08-18T06:51:04.287Z,84
2018-08-18T06:56:33.389Z,84
2018-08-18T07:02:02.484Z,84
2018-08-18T07:07:31.757Z,84
2018-08-18T07:13:01.674Z,84
2018-08-18T07:18:31.479Z,83
2018-08-18T07:24:01.833Z,83
2018-08-18T07:29:30.918Z,83
2018-08-18T07:35:00.802Z,82
2018-08-18T07:40:34.957Z,81
2018-08-18T07:46:05.576Z,82
2018-08-18T07:51:29.577Z,82
2018-08-18T07:56:58.871Z,83
2018-08-18T08:02:34.062Z,83
2018-08-18T08:08:03.966Z,83
2018-08-18T08:13:34.127Z,82
2018-08-18T08:18:59.787Z,82
2018-08-18T08:24:28.599Z,82
2018-08-18T08:30:04.243Z,81
2018-08-18T08:35:28.212Z,81
2018-08-18T08:40:57.454Z,81
2018-08-18T08:46:31.741Z,80
2018-08-18T08:51:56.966Z,80
2018-08-18T08:57:26.135Z,79
2018-08-18T09:02:56.597Z,79
2018-08-18T09:08:27.042Z,79
2018-08-18T09:14:01.185Z,78
2018-08-18T09:19:30.581Z,78
2018-08-18T09:24:56.093Z,78
2018-08-18T09:30:26.360Z,78
2018-08-18T09:35:57.586Z,78
2018-08-18T09:41:32.156Z,78
2018-08-18T09:46:57.579Z,77
2018-08-18T09:52:33.554Z,77
2018-08-18T09:57:59.052Z,76
2018-08-18T10:03:28.833Z,75
2018-08-18T10:08:59.353Z,75
2018-08-18T10:14:28.937Z,74
2018-08-18T10:19:58.939Z,74
2018-08-18T10:25:33.925Z,75
2018-08-18T10:30:59.587Z,75
2018-08-18T10:36:33.749Z,75
2018-08-18T10:41:58.224Z,75
2018-08-18T10:47:27.878Z,74
2018-08-18T10:52:57.310Z,74
2018-08-18T10:58:28.090Z,74
2018-08-18T11:04:01.957Z,74
2018-08-18T11:09:27.318Z,73
2018-08-18T11:14:56.754Z,73
2018-08-18T11:20:26.637Z,73
2018-08-18T11:26:00.645Z,73
2018-08-18T11:31:25.068Z,73
2018-08-18T11:37:00.531Z,73
2018-08-18T11:42:24.922Z,72
2018-08-18T11:47:55.375Z,72
2018-08-18T11:53:30.793Z,72
2018-08-18T11:58:55.279Z,71
2018-08-18T12:04:24.674Z,71
2018-08-18T12:09:54.517Z,70
2018-08-18T12:15:25.031Z,70
2018-08-18T12:21:00.568Z,70
2018-08-18T12:26:25.783Z,71
2018-08-18T12:31:56.530Z,71
2018-08-18T12:37:25.788Z,70
2018-08-18T12:42:55.331Z,70
2018-08-18T12:48:31.448Z,70
2018-08-18T12:53:55.305Z,70
2018-08-18T12:59:26.065Z,70
2018-08-18T13:05:00.937Z,70
2018-08-18T13:10:25.829Z,69
2018-08-18T13:16:01.581Z,69
2018-08-18T13:21:32.306Z,70
2018-08-18T13:26:57.788Z,70
2018-08-18T13:32:31.890Z,70
2018-08-18T13:38:01.792Z,70
2018-08-18T13:43:25.905Z,69
2018-08-18T13:48:55.761Z,69
2018-08-18T13:54:25.028Z,69
2018-08-18T13:59:59.513Z,70
2018-08-18T14:05:24.214Z,70
2018-08-18T14:10:53.564Z,70
2018-08-18T14:16:24.124Z,70
2018-08-18T14:21:53.588Z,70
2018-08-18T14:27:23.134Z,70
2018-08-18T14:32:52.676Z,70
2018-08-18T14:38:22.808Z,70
2018-08-18T14:43:51.348Z,70
2018-08-18T14:49:21.793Z,71
2018-08-18T14:54:56.281Z,71
2018-08-18T15:00:21.156Z,71
2018-08-18T15:05:50.399Z,71
2018-08-18T15:11:24.813Z,71
2018-08-18T15:16:50.148Z,71
2018-08-18T15:22:25.694Z,71
2018-08-18T15:27:50.869Z,71
2018-08-18T15:33:20.306Z,71
2018-08-18T15:38:50.847Z,72
2018-08-18T15:44:20.487Z,72
2018-08-18T15:49:50.690Z,72
2018-08-18T15:55:21.338Z,72
2018-08-18T16:00:51.521Z,72
2018-08-18T16:06:21.997Z,73
2018-08-18T16:11:52.405Z,73
2018-08-18T16:17:22.290Z,73
2018-08-18T16:22:52.319Z,73
2018-08-18T16:28:21.691Z,73
2018-08-18T16:33:52.822Z,73
2018-08-18T16:39:26.602Z,73
2018-08-18T16:44:51.120Z,74
2018-08-18T16:50:20.433Z,74
2018-08-18T16:55:51.172Z,74
2018-08-18T17:01:20.294Z,74
2018-08-18T17:06:54.610Z,74
2018-08-18T17:12:20.035Z,74
2018-08-18T17:17:49.456Z,74
2018-08-18T17:23:18.790Z,75
2018-08-18T17:28:49.252Z,75
2018-08-18T17:34:18.639Z,75
2018-08-18T17:39:48.243Z,75
2018-08-18T17:45:23.344Z,75
2018-08-18T17:50:52.688Z,75
2018-08-18T17:56:18.045Z,75
2018-08-18T18:01:52.445Z,75
2018-08-18T18:07:18.058Z,76
2018-08-18T18:12:52.164Z,76
2018-08-18T18:18:17.866Z,76
2018-08-18T18:23:48.384Z,76
2018-08-18T18:29:17.860Z,76
2018-08-18T18:34:46.979Z,76
2018-08-18T18:40:16.932Z,77
2018-08-18T18:45:46.738Z,77
2018-08-18T18:51:15.969Z,77
2018-08-18T18:56:46.031Z,77
2018-08-18T19:02:21.837Z,77
2018-08-18T19:07:45.693Z,77
2018-08-18T19:13:19.951Z,78
2018-08-18T19:18:45.551Z,78
2018-08-18T19:24:16.128Z,78
2018-08-18T19:29:46.064Z,78
2018-08-18T19:35:21.241Z,78
2018-08-18T19:40:45.604Z,78
2018-08-18T19:46:14.998Z,78
2018-08-18T19:51:49.677Z,78
2018-08-18T19:57:13.568Z,78
2018-08-18T20:02:42.856Z,78
2018-08-18T20:08:16.957Z,78
2018-08-18T20:13:42.118Z,79
2018-08-18T20:19:11.840Z,79
2018-08-18T20:24:40.785Z,79
2018-08-18T20:30:10.989Z,79
2018-08-18T20:35:40.320Z,79
2018-08-18T20:41:10.511Z,79
2018-08-18T20:46:40.724Z,79
2018-08-18T20:52:10.014Z,79
2018-08-18T20:57:39.197Z,79
2018-08-18T21:03:08.471Z,79
2018-08-18T21:08:38.747Z,79
2018-08-18T21:14:07.884Z,80
2018-08-18T21:19:42.373Z,80
2018-08-18T21:25:07.191Z,80
2018-08-18T21:30:35.537Z,80
2018-08-18T21:36:04.771Z,80
2018-08-18T21:41:33.997Z,80
2018-08-18T21:47:09.136Z,80
2018-08-18T21:52:33.354Z,80
2018-08-18T21:58:07.570Z,80
2018-08-18T22:03:31.710Z,80
2018-08-18T22:09:00.856Z,80
2018-08-18T22:14:30.306Z,80
2018-08-18T22:19:59.396Z,80
2018-08-18T22:25:29.396Z,81
2018-08-18T22:31:00.304Z,81
2018-08-18T22:36:34.649Z,81
2018-08-18T22:41:59.050Z,81
2018-08-18T22:47:28.263Z,81
2018-08-18T22:52:58.465Z,81
2018-08-18T22:58:27.284Z,81
2018-08-18T23:03:56.485Z,81
2018-08-18T23:09:26.765Z,81
2018-08-18T23:14:55.810Z,81
2018-08-18T23:20:25.010Z,81
2018-08-18T23:25:59.434Z,81
2018-08-18T23:31:23.400Z,81
2018-08-18T23:36:57.755Z,81
2018-08-18T23:42:26.680Z,81
2018-08-18T23:47:56.847Z,81
2018-08-18T23:53:27.124Z,81
2018-08-18T23:58:56.462Z,81
